Time;durP1;ratioP1;P1;durP2;ratioP2;P2;SDS_P1;SDS_P2;PMS_P1;PMS_P2;Temp;Humidity;BMP_temperature;BMP_pressure;BME280_temperature;BME280_humidity;BME280_pressure;Samples;Min_cycle;Max_cycle;Signal;HPM_P1;HPM_P2
2021/10/21 00:01:49;;;;;;;3.47;3.27;;;;;;;;;;4858047;29;20494;-92
2021/10/21 00:04:15;;;;;;;3.63;3.33;;;16.30;99.90;;;;;;4856503;29;20412;-94
2021/10/21 00:06:45;;;;;;;4.70;3.30;;;18.90;99.90;;;;;;4856940;29;20436;-93
2021/10/21 00:09:11;;;;;;;4.13;3.00;;;17.40;99.90;;;;;;4841280;29;20485;-94
2021/10/21 00:11:37;;;;;;;3.50;3.30;;;;;;;;;;4853368;29;20932;-92
2021/10/21 00:14:04;;;;;;;3.50;3.33;;;16.70;99.90;;;;;;4856774;29;20183;-93
2021/10/21 00:16:31;;;;;;;3.83;3.70;;;16.40;99.90;;;;;;4855592;29;20431;-92
2021/10/21 00:18:58;;;;;;;7.23;3.80;;;16.50;99.90;;;;;;4836901;29;20477;-92
2021/10/21 00:21:24;;;;;;;3.50;3.20;;;;;;;;;;4850811;29;20483;-91
2021/10/21 00:23:56;;;;;;;5.20;4.50;;;16.20;99.90;;;;;;4855203;29;20980;-92
2021/10/21 00:26:23;;;;;;;4.00;3.80;;;;;;;;;;4851055;29;20507;-90
2021/10/21 00:28:49;;;;;;;5.30;4.00;;;;;;;;;;4850629;29;20420;-91
2021/10/21 00:31:17;;;;;;;5.40;4.80;;;;;;;;;;4851502;29;20442;-90
2021/10/21 00:33:45;;;;;;;5.00;4.70;;;15.60;99.90;;;;;;4848816;29;20436;-92
2021/10/21 00:36:23;;;;;;;4.63;4.23;;;;;;;;;;4833938;29;20438;-92
2021/10/21 00:38:49;;;;;;;4.80;4.50;;;15.40;99.90;;;;;;4848055;29;20476;-91
2021/10/21 00:41:17;;;;;;;4.33;3.97;;;17.50;99.90;;;;;;4847459;29;20487;-92
2021/10/21 00:43:43;;;;;;;4.73;4.47;;;17.60;99.90;;;;;;4848436;29;20175;-91
2021/10/21 00:46:15;;;;;;;6.30;4.83;;;16.10;99.90;;;;;;4849043;29;20476;-90
2021/10/21 00:48:43;;;;;;;5.87;4.53;;;17.30;99.90;;;;;;4850284;29;20775;-92
2021/10/21 00:51:12;;;;;;;5.43;4.83;;;15.10;99.90;;;;;;4852808;29;20455;-91
2021/10/21 00:53:39;;;;;;;5.73;5.30;;;15.10;99.90;;;;;;4852496;29;20435;-91
2021/10/21 00:56:07;;;;;;;5.10;4.70;;;17.50;99.90;;;;;;4850757;29;20435;-92
2021/10/21 00:58:34;;;;;;;8.70;6.13;;;15.00;99.90;;;;;;4838872;29;20980;-91
2021/10/21 01:01:05;;;;;;;4.80;4.40;;;13.60;99.90;;;;;;4852235;29;20483;-91
2021/10/21 01:03:31;;;;;;;3.67;3.40;;;;;;;;;;4853306;29;20428;-93
2021/10/21 01:06:01;;;;;;;4.60;2.80;;;;;;;;;;4862743;29;20412;-91
2021/10/21 01:08:29;;;;;;;3.13;3.13;;;15.00;99.90;;;;;;4866481;29;20448;-90
2021/10/21 01:10:59;;;;;;;2.60;2.50;;;15.10;99.90;;;;;;4866290;29;20435;-90
2021/10/21 01:13:27;;;;;;;4.67;2.97;;;;;;;;;;4863157;29;20500;-91
2021/10/21 01:16:04;;;;;;;1.90;1.80;;;15.00;99.90;;;;;;4858661;29;20420;-92
2021/10/21 01:18:37;;;;;;;2.30;2.30;;;16.00;99.90;;;;;;4857682;29;20430;-91
2021/10/21 01:21:09;;;;;;;2.13;2.10;;;15.50;99.90;;;;;;4859973;29;20544;-91
2021/10/21 01:23:41;;;;;;;2.53;2.00;;;15.10;99.90;;;;;;4858790;29;20430;-91
2021/10/21 01:26:19;;;;;;;2.50;2.40;;;16.00;99.90;;;;;;4861461;29;20400;-92
2021/10/21 01:28:45;;;;;;;1.60;1.57;;;;;;;;;;4843946;29;20426;-91
2021/10/21 01:31:27;;;;;;;1.40;1.40;;;15.20;99.90;;;;;;4861578;29;20415;-92
2021/10/21 01:34:02;;;;;;;4.03;1.90;;;15.30;99.90;;;;;;4861245;29;20416;-93
2021/10/21 01:36:29;;;;;;;1.90;1.90;;;17.30;99.90;;;;;;4859615;29;20431;-90
2021/10/21 01:38:56;;;;;;;1.80;1.40;;;15.10;99.90;;;;;;4844712;29;20518;-91
2021/10/21 01:41:22;;;;;;;1.57;1.50;;;;;;;;;;4842980;29;20483;-90
2021/10/21 01:43:51;;;;;;;1.80;1.70;;;14.70;99.90;;;;;;4858892;29;20427;-91
2021/10/21 01:46:21;;;;;;;3.00;1.50;;;;;;;;;;4843461;29;20431;-93
2021/10/21 01:48:50;;;;;;;2.93;1.63;;;14.90;99.90;;;;;;4862026;29;20427;-93
2021/10/21 01:51:16;;;;;;;2.57;1.37;;;;;;;;;;4859665;29;20443;-89
2021/10/21 01:53:48;;;;;;;8.70;1.60;;;14.80;99.90;;;;;;4861147;29;20526;-91
2021/10/21 01:56:18;;;;;;;1.50;1.23;;;13.90;99.90;;;;;;4862438;29;20503;-91
2021/10/21 01:58:45;;;;;;;6.33;1.70;;;;;;;;;;4859126;29;20423;-92
2021/10/21 02:01:36;;;;;;;1.40;1.30;;;14.70;99.90;;;;;;4859568;29;20491;-90
2021/10/21 02:04:03;;;;;;;1.20;1.20;;;14.50;99.90;;;;;;4836097;29;20443;-92
2021/10/21 02:06:36;;;;;;;5.73;1.60;;;14.20;99.90;;;;;;4858586;29;20448;-92
2021/10/21 02:09:20;;;;;;;1.23;1.13;;;14.50;99.90;;;;;;4845928;29;20465;-92
2021/10/21 02:11:57;;;;;;;1.03;1.00;;;;;;;;;;4859457;29;20450;-91
2021/10/21 02:14:23;;;;;;;1.10;1.10;;;;;;;;;;4859935;29;20431;-91
2021/10/21 02:16:51;;;;;;;1.13;1.10;;;;;;;;;;4863554;29;20771;-91
2021/10/21 02:19:20;;;;;;;1.87;1.10;;;;;;;;;;4861640;29;20471;-91
2021/10/21 02:21:59;;;;;;;0.77;0.77;;;13.80;99.90;;;;;;4862564;29;20483;-91
2021/10/21 02:24:50;;;;;;;1.10;1.10;;;14.70;99.90;;;;;;4859346;29;20454;-91
2021/10/21 02:27:17;;;;;;;2.37;1.00;;;14.00;99.90;;;;;;4848512;29;20519;-91
2021/10/21 02:29:53;;;;;;;0.40;0.40;;;14.90;99.90;;;;;;4862503;29;20451;-91
2021/10/21 02:32:23;;;;;;;0.80;0.60;;;;;;;;;;4848672;29;20428;-92
2021/10/21 02:34:49;;;;;;;0.70;0.70;;;;;;;;;;4865092;29;20396;-92
2021/10/21 02:37:28;;;;;;;2.03;0.80;;;14.10;99.90;;;;;;4865216;29;20428;-93
2021/10/21 02:39:58;;;;;;;3.30;0.93;;;14.30;98.60;;;;;;4864335;29;20435;-93
2021/10/21 02:42:45;;;;;;;;;;;;;;;;;;;;;
2021/10/21 02:45:17;;;;;;;0.77;0.77;;;12.80;99.00;;;;;;4851096;29;20519;-92
2021/10/21 02:47:50;;;;;;;5.80;1.80;;;13.90;99.90;;;;;;4863850;29;20408;-92
2021/10/21 02:50:40;;;;;;;3.50;0.73;;;14.00;99.90;;;;;;4866792;29;20395;-93
2021/10/21 02:53:12;;;;;;;0.97;0.67;;;16.50;99.30;;;;;;4867229;29;20446;-91
2021/10/21 02:55:40;;;;;;;3.80;0.77;;;;;;;;;;4850860;29;20464;-91
2021/10/21 02:58:06;;;;;;;11.37;1.40;;;;;;;;;;4865678;29;20496;-90
2021/10/21 03:00:48;;;;;;;2.23;0.70;;;13.80;95.80;;;;;;4866057;29;20552;-93
2021/10/21 03:03:20;;;;;;;0.67;0.60;;;13.80;95.50;;;;;;4849899;29;20426;-93
2021/10/21 03:06:00;;;;;;;1.77;1.67;;;14.70;98.00;;;;;;4867014;29;20416;-92
2021/10/21 03:08:27;;;;;;;4.27;1.23;;;;;;;;;;4865021;29;20422;-90
2021/10/21 03:11:02;;;;;;;1.53;0.70;;;13.50;99.90;;;;;;4866341;29;20439;-92
2021/10/21 03:13:29;;;;;;;0.73;0.60;;;;;;;;;;4849575;29;20423;-91
2021/10/21 03:16:02;;;;;;;3.80;1.73;;;13.90;95.50;;;;;;4864896;29;20420;-92
2021/10/21 03:18:51;;;;;;;3.20;0.80;;;13.90;94.70;;;;;;4864259;29;20424;-93
2021/10/21 03:21:23;;;;;;;2.37;0.87;;;14.30;95.70;;;;;;4863894;29;20485;-92
2021/10/21 03:23:56;;;;;;;3.83;0.70;;;;;;;;;;4864907;29;20420;-91
2021/10/21 03:26:48;;;;;;;;;;;;;;;;;;;;;
2021/10/21 03:29:15;;;;;;;11.13;1.20;;;13.30;96.20;;;;;;4855386;29;20472;-90
2021/10/21 03:31:43;;;;;;;1.53;0.73;;;13.60;97.00;;;;;;4848194;29;20959;-91
2021/10/21 03:37:15;;;;;;;7.03;0.70;;;13.50;99.90;;;;;;5139967;24;20480;-91
2021/10/21 03:43:15;;;;;;;1.33;0.70;;;15.20;97.00;;;;;;4862356;29;20513;-92
2021/10/21 03:45:46;;;;;;;1.80;0.80;;;15.10;97.10;;;;;;4863732;29;20419;-90
2021/10/21 03:48:15;;;;;;;1.70;0.80;;;13.90;94.70;;;;;;4867579;29;20874;-93
2021/10/21 03:50:47;;;;;;;1.17;0.80;;;12.50;95.40;;;;;;4918893;29;20454;-91
2021/10/21 03:53:16;;;;;;;1.20;0.83;;;14.30;99.90;;;;;;4902387;29;20460;-90
2021/10/21 03:55:48;;;;;;;3.80;1.00;;;;;;;;;;4904311;29;20482;-92
2021/10/21 03:58:16;;;;;;;0.80;0.70;;;14.00;94.80;;;;;;4917986;29;20413;-92
2021/10/21 04:00:49;;;;;;;4.73;1.13;;;14.40;98.80;;;;;;4888864;29;20461;-92
2021/10/21 04:03:20;;;;;;;5.93;0.97;;;13.90;99.90;;;;;;4904154;29;20430;-91
2021/10/21 04:06:11;;;;;;;0.53;0.50;;;13.80;94.30;;;;;;4921726;29;20423;-91
2021/10/21 04:11:26;;;;;;;2.90;0.90;;;14.00;93.90;;;;;;3278301;23;20485;-92
2021/10/21 04:13:54;;;;;;;2.83;0.80;;;14.10;99.90;;;;;;4887865;29;20433;-92
2021/10/21 04:16:29;;;;;;;0.77;0.77;;;13.90;99.90;;;;;;4899535;29;20453;-91
2021/10/21 04:19:04;;;;;;;2.47;0.80;;;14.10;93.10;;;;;;4883217;29;20441;-93
2021/10/21 04:21:31;;;;;;;1.00;0.60;;;15.20;94.10;;;;;;4900107;29;20461;-91
2021/10/21 04:23:58;;;;;;;2.13;0.80;;;;;;;;;;4866207;29;20973;-92
2021/10/21 04:26:36;;;;;;;1.10;0.50;;;14.00;93.70;;;;;;4899285;29;20418;-93
2021/10/21 04:29:11;;;;;;;1.03;0.83;;;16.90;95.80;;;;;;4900612;29;20462;-90
2021/10/21 04:31:53;;;;;;;5.17;1.17;;;16.20;97.50;;;;;;4867458;29;20401;-91
2021/10/21 04:34:38;;;;;;;22.97;2.77;;;14.70;94.50;;;;;;4884706;29;20418;-93
2021/10/21 04:37:18;;;;;;;3.23;0.80;;;14.00;97.00;;;;;;4881086;29;20419;-90
2021/10/21 04:39:44;;;;;;;1.53;0.40;;;;;;;;;;4897733;29;20431;-92
2021/10/21 04:42:10;;;;;;;1.80;0.80;;;;;;;;;;4897405;29;20446;-92
2021/10/21 04:47:34;;;;;;;2.27;0.57;;;15.30;95.70;;;;;;4898808;29;20447;-91
2021/10/21 04:50:00;;;;;;;3.60;0.73;;;;;;;;;;4898059;29;20425;-92
2021/10/21 04:52:41;;;;;;;1.23;0.70;;;13.90;94.50;;;;;;4897066;29;20418;-93
2021/10/21 04:55:08;;;;;;;0.50;0.50;;;15.40;95.80;;;;;;4882506;29;20482;-92
2021/10/21 04:57:43;;;;;;;1.07;0.53;;;15.10;97.30;;;;;;4898830;29;20397;-93
2021/10/21 05:00:18;;;;;;;3.07;0.63;;;15.70;96.70;;;;;;4880472;29;20409;-93
2021/10/21 05:02:51;;;;;;;14.63;1.50;;;15.30;95.60;;;;;;4896815;29;20485;-92
2021/10/21 05:05:18;;;;;;;0.30;0.30;;;;;;;;;;4897915;29;20405;-92
2021/10/21 05:07:56;;;;;;;0.40;0.40;;;13.80;95.20;;;;;;4897601;29;20426;-93
2021/10/21 05:10:39;;;;;;;2.57;0.47;;;13.50;97.60;;;;;;4882717;29;20457;-92
2021/10/21 05:14:10;;;;;;;1.50;0.30;;;13.70;98.00;;;;;;4883804;29;20441;-90
2021/10/21 05:16:45;;;;;;;0.87;0.40;;;13.20;99.90;;;;;;4897649;29;20438;-92
2021/10/21 05:19:20;;;;;;;0.70;0.40;;;14.90;99.90;;;;;;4898588;29;20402;-92
2021/10/21 05:21:47;;;;;;;4.63;0.53;;;13.20;99.90;;;;;;4898133;29;20874;-90
2021/10/21 05:24:46;;;;;;;0.70;0.30;;;13.50;99.90;;;;;;4882596;29;20434;-93
2021/10/21 05:27:12;;;;;;;0.40;0.40;;;13.20;99.30;;;;;;4879144;29;20489;-91
2021/10/21 05:30:19;;;;;;;0.53;0.53;;;15.30;99.90;;;;;;4897095;29;20518;-90
2021/10/21 05:32:48;;;;;;;3.57;0.50;;;;;;;;;;4879796;29;20429;-92
2021/10/21 05:35:33;;;;;;;0.77;0.43;;;13.00;99.90;;;;;;4897367;29;20457;-91
2021/10/21 05:38:08;;;;;;;1.23;0.40;;;12.80;99.90;;;;;;4898160;29;20394;-92
2021/10/21 05:40:39;;;;;;;1.33;0.53;;;12.50;99.90;;;;;;4899000;29;20464;-91
2021/10/21 05:43:26;;;;;;;;;;;;;;;;;;;;;
2021/10/21 05:45:57;;;;;;;0.60;0.60;;;13.10;99.90;;;;;;4841687;29;20480;-90
2021/10/21 05:48:33;;;;;;;0.43;0.43;;;14.70;99.90;;;;;;4829865;29;20412;-92
2021/10/21 05:51:03;;;;;;;0.60;0.50;;;12.50;99.90;;;;;;4839020;29;20522;-93
2021/10/21 05:53:29;;;;;;;0.40;0.40;;;;;;;;;;4878867;29;20438;-89
2021/10/21 05:55:56;;;;;;;4.13;0.77;;;;;;;;;;4882448;29;20418;-87
2021/10/21 05:59:08;;;;;;;3.70;0.73;;;12.40;99.90;;;;;;4897651;29;20422;-91
2021/10/21 06:01:46;;;;;;;1.50;0.50;;;13.80;99.90;;;;;;4891289;29;20477;-91
2021/10/21 06:04:56;;;;;;;0.60;0.60;;;10.80;99.90;;;;;;4897016;29;20445;-91
2021/10/21 06:07:24;;;;;;;2.13;0.60;;;13.30;99.90;;;;;;4882301;29;20442;-90
2021/10/21 06:09:59;;;;;;;0.83;0.53;;;11.60;99.90;;;;;;4883713;29;20409;-89
2021/10/21 06:12:35;;;;;;;0.43;0.43;;;14.10;99.90;;;;;;4870336;29;20489;-91
2021/10/21 06:15:09;;;;;;;0.87;0.70;;;10.80;99.90;;;;;;4866698;29;20466;-92
2021/10/21 06:20:34;;;;;;;0.60;0.60;;;12.70;99.90;;;;;;4881703;29;20481;-88
2021/10/21 06:23:04;;;;;;;1.13;1.13;;;12.90;99.90;;;;;;4877636;29;20438;-91
2021/10/21 06:25:31;;;;;;;0.80;0.80;;;;;;;;;;4864409;29;20422;-90
2021/10/21 06:27:58;;;;;;;2.97;1.60;;;11.30;99.90;;;;;;4877699;29;20185;-89
2021/10/21 06:30:38;;;;;;;4.53;1.43;;;11.40;99.90;;;;;;4882662;29;20414;-90
2021/10/21 06:33:23;;;;;;;;;;;;;;;;;;;;;
2021/10/21 06:36:05;;;;;;;4.90;2.90;;;11.50;99.90;;;;;;4876941;29;20462;-91
2021/10/21 06:38:32;;;;;;;3.57;3.27;;;;;;;;;;4879007;29;20486;-91
2021/10/21 06:41:01;;;;;;;3.53;3.23;;;11.30;99.90;;;;;;4862592;29;20475;-90
2021/10/21 06:43:43;;;;;;;;;;;;;;;;;;;;;
2021/10/21 06:46:28;;;;;;;1.10;1.00;;;11.30;99.90;;;;;;4851864;29;20539;-92
2021/10/21 06:49:03;;;;;;;6.07;3.53;;;11.10;99.90;;;;;;4858998;29;20424;-91
2021/10/21 06:51:34;;;;;;;0.40;0.40;;;13.90;99.90;;;;;;4842467;29;20416;-90
2021/10/21 06:54:06;;;;;;;2.13;0.73;;;11.60;99.90;;;;;;4839575;29;20761;-92
2021/10/21 06:56:34;;;;;;;0.50;0.50;;;;;;;;;;4852574;29;20518;-88
2021/10/21 06:59:03;;;;;;;0.60;0.60;;;10.90;99.90;;;;;;4858678;29;20416;-92
2021/10/21 07:01:32;;;;;;;6.40;0.90;;;13.50;99.90;;;;;;4857281;29;20467;-92
2021/10/21 07:04:20;;;;;;;0.40;0.40;;;10.70;99.90;;;;;;4859152;29;20444;-93
2021/10/21 07:07:05;;;;;;;7.20;1.10;;;10.70;99.90;;;;;;4843454;29;20423;-90
2021/10/21 07:10:06;;;;;;;2.30;0.67;;;10.60;99.90;;;;;;4884832;29;20449;-92
2021/10/21 07:12:41;;;;;;;1.57;0.60;;;11.60;99.90;;;;;;4876504;29;20996;-89
2021/10/21 07:15:12;;;;;;;2.93;0.87;;;10.50;99.90;;;;;;4894454;29;20426;-90
2021/10/21 07:17:40;;;;;;;3.77;0.70;;;;;;;;;;4893806;29;20428;-92
2021/10/21 07:20:13;;;;;;;0.67;0.67;;;9.90;99.90;;;;;;4886834;29;20514;-90
2021/10/21 07:22:42;;;;;;;0.50;0.47;;;10.30;99.90;;;;;;4887423;29;20425;-91
2021/10/21 07:25:08;;;;;;;2.00;0.40;;;12.00;99.90;;;;;;4885394;29;20429;-91
2021/10/21 07:27:39;;;;;;;0.40;0.40;;;10.30;99.90;;;;;;4883237;29;20443;-92
2021/10/21 07:30:05;;;;;;;0.70;0.70;;;10.90;99.90;;;;;;4896295;29;20418;-89
2021/10/21 07:32:34;;;;;;;0.70;0.70;;;;;;;;;;4878591;29;21025;-91
2021/10/21 07:35:00;;;;;;;1.37;0.70;;;10.30;99.90;;;;;;4878812;29;20454;-88
2021/10/21 07:37:35;;;;;;;0.77;0.70;;;10.50;99.90;;;;;;4875007;29;20482;-89
2021/10/21 07:40:07;;;;;;;1.90;1.80;;;10.50;99.90;;;;;;4859523;29;20453;-90
2021/10/21 07:42:36;;;;;;;1.80;1.00;;;10.20;99.90;;;;;;4859667;29;20443;-91
2021/10/21 07:45:11;;;;;;;2.20;1.00;;;10.40;99.90;;;;;;4876070;29;20521;-90
2021/10/21 07:47:38;;;;;;;2.37;1.40;;;10.50;99.90;;;;;;4893566;29;20433;-87
2021/10/21 07:50:06;;;;;;;6.00;1.90;;;12.40;99.90;;;;;;4894132;29;20434;-89
2021/10/21 07:52:32;;;;;;;3.13;2.17;;;;;;;;;;4876172;29;20441;-89
2021/10/21 07:55:35;;;;;;;6.13;2.93;;;10.50;99.90;;;;;;4878542;29;20493;-93
2021/10/21 07:58:03;;;;;;;3.20;1.93;;;10.60;99.90;;;;;;4891621;29;20428;-89
2021/10/21 08:00:32;;;;;;;3.60;2.07;;;10.60;99.90;;;;;;4877678;29;20472;-90
2021/10/21 08:03:03;;;;;;;4.97;1.47;;;11.90;99.90;;;;;;4896137;29;20453;-90
2021/10/21 08:05:34;;;;;;;1.42;0.90;;;10.80;99.90;;;;;;4513754;29;10000190;-92
2021/10/21 08:08:06;;;;;;;3.00;1.10;;;13.80;99.90;;;;;;4856899;29;20182;-90
2021/10/21 08:10:32;;;;;;;1.50;1.13;;;;;;;;;;4873846;29;20453;-89
2021/10/21 08:12:59;;;;;;;8.90;2.10;;;10.80;99.90;;;;;;4877842;29;20423;-90
2021/10/21 08:15:27;;;;;;;4.37;1.70;;;10.90;99.90;;;;;;4877248;29;20487;-91
2021/10/21 08:17:54;;;;;;;1.37;1.27;;;15.40;99.90;;;;;;4878704;29;20433;-89
2021/10/21 08:20:26;;;;;;;5.80;1.90;;;10.80;99.90;;;;;;4863140;29;20462;-87
2021/10/21 08:22:54;;;;;;;4.77;1.57;;;12.20;99.90;;;;;;4859766;29;20433;-89
2021/10/21 08:25:20;;;;;;;5.13;1.10;;;;;;;;;;4858670;29;20427;-85
2021/10/21 08:28:09;;;;;;;4.10;1.60;;;10.90;99.90;;;;;;4874949;29;20445;-92
2021/10/21 08:30:44;;;;;;;2.20;2.00;;;13.80;99.90;;;;;;4876990;29;20414;-91
2021/10/21 08:33:14;;;;;;;6.00;1.80;;;14.00;99.90;;;;;;4856379;29;20428;-91
2021/10/21 08:35:40;;;;;;;2.63;1.60;;;;;;;;;;4854589;29;20411;-90
2021/10/21 08:38:11;;;;;;;3.87;2.27;;;11.20;99.90;;;;;;4870252;29;20411;-90
2021/10/21 08:40:37;;;;;;;3.90;1.43;;;11.10;99.90;;;;;;4857780;29;20463;-91
2021/10/21 08:43:07;;;;;;;7.80;2.33;;;11.90;99.90;;;;;;4855770;29;20423;-90
2021/10/21 08:45:34;;;;;;;6.37;1.90;;;11.00;99.90;;;;;;4856740;29;20419;-91
2021/10/21 08:48:03;;;;;;;6.07;1.70;;;10.10;99.90;;;;;;4871430;29;20455;-90
2021/10/21 08:50:34;;;;;;;4.40;1.60;;;11.10;99.90;;;;;;4852040;29;20786;-90
2021/10/21 08:53:06;;;;;;;2.80;2.10;;;11.10;99.90;;;;;;4852779;29;20462;-90
2021/10/21 08:55:33;;;;;;;4.10;1.83;;;11.40;99.90;;;;;;4854310;29;20431;-92
2021/10/21 08:58:15;;;;;;;4.33;1.67;;;11.70;99.90;;;;;;4857814;29;20434;-91
2021/10/21 09:00:41;;;;;;;9.00;1.80;;;;;;;;;;4891234;29;20949;-91
2021/10/21 09:03:18;;;;;;;6.53;1.30;;;12.00;99.90;;;;;;4878137;29;20430;-88
2021/10/21 09:05:54;;;;;;;2.93;1.67;;;13.10;99.90;;;;;;4879007;29;20626;-89
2021/10/21 09:08:22;;;;;;;4.37;1.70;;;;;;;;;;4900064;29;20759;-90
2021/10/21 09:11:05;;;;;;;4.33;2.13;;;12.80;99.90;;;;;;4883832;29;20466;-90
2021/10/21 09:13:38;;;;;;;1.50;1.40;;;12.80;99.90;;;;;;4884362;29;20465;-90
2021/10/21 09:16:20;;;;;;;4.20;2.30;;;15.90;99.90;;;;;;4884173;29;20428;-91
2021/10/21 09:19:07;;;;;;;2.87;2.03;;;13.10;99.90;;;;;;4883863;29;20440;-90
2021/10/21 09:21:43;;;;;;;4.20;2.17;;;13.50;99.90;;;;;;4882983;29;20501;-91
2021/10/21 09:24:39;;;;;;;6.30;2.30;;;12.90;99.90;;;;;;4869158;29;20426;-89
2021/10/21 09:27:17;;;;;;;5.40;1.87;;;12.50;99.90;;;;;;4885969;29;20429;-89
2021/10/21 09:35:02;;;;;;;4.43;1.60;;;12.70;99.90;;;;;;4909706;29;20477;-91
2021/10/21 09:37:44;;;;;;;2.93;1.13;;;14.90;99.90;;;;;;4914632;29;20486;-90
2021/10/21 09:40:12;;;;;;;6.10;2.20;;;12.80;99.90;;;;;;4897080;29;20420;-93
2021/10/21 09:42:51;;;;;;;3.17;2.33;;;14.60;99.90;;;;;;4892952;29;20431;-91
2021/10/21 09:45:22;;;;;;;6.97;2.40;;;14.50;99.90;;;;;;4892425;29;20421;-89
2021/10/21 09:48:17;;;;;;;5.03;2.07;;;12.10;99.90;;;;;;4894696;29;20444;-90
2021/10/21 09:50:46;;;;;;;5.73;2.43;;;12.30;99.90;;;;;;4906964;29;20433;-92
2021/10/21 09:53:20;;;;;;;3.53;2.17;;;10.30;99.90;;;;;;4893236;29;20517;-92
2021/10/21 09:55:51;;;;;;;3.10;2.03;;;13.50;99.90;;;;;;4893175;29;20451;-90
2021/10/21 09:58:20;;;;;;;4.47;2.70;;;12.20;99.90;;;;;;4909838;29;20428;-91
2021/10/21 10:00:49;;;;;;;5.90;2.40;;;15.10;99.90;;;;;;4909222;29;20959;-93
2021/10/21 10:03:30;;;;;;;3.70;2.27;;;12.20;99.90;;;;;;4896863;29;20420;-92
2021/10/21 10:05:58;;;;;;;4.50;2.47;;;;;;;;;;4912351;29;20417;-92
2021/10/21 10:08:26;;;;;;;7.47;2.70;;;12.40;99.90;;;;;;4896275;29;20408;-91
2021/10/21 10:10:57;;;;;;;3.97;2.97;;;14.80;99.90;;;;;;4892333;29;20501;-91
2021/10/21 10:13:35;;;;;;;3.00;1.90;;;12.30;99.90;;;;;;4896817;29;20425;-91
2021/10/21 10:16:01;;;;;;;2.40;1.50;;;;;;;;;;4570457;29;9999636;-90
2021/10/21 10:18:40;;;;;;;1.63;1.10;;;12.30;99.30;;;;;;4891909;29;20172;-90
2021/10/21 10:21:19;;;;;;;2.67;1.17;;;15.20;99.90;;;;;;4908150;29;20487;-91
2021/10/21 10:23:54;;;;;;;5.77;1.60;;;14.80;99.90;;;;;;4907250;29;20424;-91
2021/10/21 10:26:42;;;;;;;6.23;1.80;;;12.20;98.70;;;;;;4893730;29;20428;-90
2021/10/21 10:29:17;;;;;;;7.83;2.03;;;12.80;99.90;;;;;;4908089;29;20452;-93
2021/10/21 10:31:58;;;;;;;1.07;0.97;;;10.70;99.90;;;;;;4912114;29;20421;-92
2021/10/21 10:34:34;;;;;;;3.57;1.30;;;11.90;99.90;;;;;;4914821;29;20464;-90
2021/10/21 10:37:33;;;;;;;1.80;1.70;;;16.30;99.90;;;;;;4912736;29;20437;-90
2021/10/21 10:43:44;;;;;;;5.30;1.10;;;11.90;98.80;;;;;;4880173;29;20470;-92
2021/10/21 10:47:07;;;;;;;;;;;;;;;;;;;;;
2021/10/21 10:55:49;;;;;;;1.13;1.10;;;11.20;99.90;;;;;;599340;23;20730;31
2021/10/21 11:01:30;;;;;;;3.50;1.65;;;12.60;99.90;;;;;;4855210;29;20568;-86
2021/10/21 11:03:55;;;;;;;3.20;1.37;;;11.10;99.90;;;;;;4834009;29;20701;-92
2021/10/21 11:06:37;;;;;;;2.37;1.43;;;11.80;99.90;;;;;;4853541;29;20424;-91
2021/10/21 11:09:07;;;;;;;1.50;1.40;;;10.90;99.90;;;;;;4838675;29;20415;-92
2021/10/21 11:11:59;;;;;;;2.27;1.20;;;10.70;99.90;;;;;;4852865;29;20480;-90
2021/10/21 11:14:31;;;;;;;6.53;2.13;;;11.00;99.90;;;;;;4836274;29;20432;-90
2021/10/21 11:17:16;;;;;;;3.57;1.40;;;13.20;99.90;;;;;;4853065;29;20908;-92
2021/10/21 11:19:43;;;;;;;4.87;1.73;;;;;;;;;;4844394;29;20503;-92
2021/10/21 11:22:30;;;;;;;1.63;1.63;;;11.70;99.90;;;;;;4860433;29;20459;-91
2021/10/21 11:28:14;;;;;;;6.43;1.53;;;;;;;;;;5321207;23;21508;-91
2021/10/21 11:30:44;;;;;;;1.80;1.30;;;11.90;99.90;;;;;;4882167;29;20524;-92
2021/10/21 11:33:35;;;;;;;3.77;2.27;;;12.20;99.90;;;;;;4985045;23;20702;-92
2021/10/21 11:36:08;;;;;;;1.57;1.43;;;12.30;99.90;;;;;;5129983;23;20522;-89
2021/10/21 11:41:12;;;;;;;1.77;1.63;;;12.20;99.90;;;;;;5372298;23;20497;-91
2021/10/21 11:44:07;;;;;;;1.93;1.73;;;12.00;99.90;;;;;;4881208;29;20426;-90
2021/10/21 11:46:35;;;;;;;1.00;1.00;;;12.20;99.90;;;;;;4880152;29;20946;-92
2021/10/21 11:49:03;;;;;;;6.90;1.30;;;12.50;99.90;;;;;;4897844;29;20428;-90
2021/10/21 11:54:13;;;;;;;2.73;0.90;;;12.40;99.10;;;;;;5115050;23;20488;-91
2021/10/21 11:57:19;;;;;;;1.03;1.03;;;12.60;99.90;;;;;;4918627;29;20401;-92
2021/10/21 12:00:21;;;;;;;0.80;0.80;;;16.80;99.90;;;;;;4845591;29;20432;-91
2021/10/21 12:03:01;;;;;;;0.60;0.60;;;12.90;97.60;;;;;;4845332;29;20451;-91
2021/10/21 12:05:30;;;;;;;2.63;1.40;;;13.40;96.70;;;;;;4879312;29;20489;-90
2021/10/21 12:08:22;;;;;;;1.83;1.33;;;13.70;97.80;;;;;;4917427;29;20427;-91
2021/10/21 12:11:18;;;;;;;1.70;0.80;;;16.20;96.50;;;;;;4892545;29;20455;-92
2021/10/21 12:13:46;;;;;;;0.80;0.80;;;13.30;95.50;;;;;;4901578;29;20405;-91
2021/10/21 12:16:47;;;;;;;1.03;0.80;;;11.80;94.50;;;;;;4914292;29;20413;-92
2021/10/21 12:19:31;;;;;;;2.13;0.77;;;16.10;97.10;;;;;;4891423;29;20504;-92
2021/10/21 12:22:29;;;;;;;1.10;1.10;;;12.90;96.60;;;;;;5013095;23;10002306;-92
2021/10/21 12:25:37;;;;;;;1.50;1.00;;;14.20;97.80;;;;;;2963692;23;20281;-90
2021/10/21 12:28:08;;;;;;;1.70;1.60;;;12.40;99.90;;;;;;4893272;29;20922;-91
2021/10/21 12:30:43;;;;;;;1.80;1.50;;;15.10;99.90;;;;;;4877666;29;20497;-91
2021/10/21 12:33:26;;;;;;;1.27;1.27;;;10.90;99.90;;;;;;4874551;29;20418;-92
2021/10/21 12:36:04;;;;;;;0.70;0.70;;;10.10;99.90;;;;;;4893896;29;20441;-90
2021/10/21 12:38:57;;;;;;;1.20;1.13;;;10.40;99.90;;;;;;4893980;29;20539;-91
2021/10/21 12:42:00;;;;;;;1.70;1.00;;;10.30;99.90;;;;;;4860717;29;20458;-92
2021/10/21 12:45:02;;;;;;;0.93;0.93;;;10.40;99.90;;;;;;4878526;29;20430;-90
2021/10/21 12:47:33;;;;;;;0.80;0.80;;;10.30;99.90;;;;;;4876875;29;20425;-89
2021/10/21 12:50:16;;;;;;;1.10;1.10;;;14.40;99.90;;;;;;4877682;29;20429;-92
2021/10/21 12:52:44;;;;;;;2.00;0.90;;;10.40;99.90;;;;;;4874717;29;20486;-89
2021/10/21 12:55:23;;;;;;;0.90;0.90;;;13.10;99.90;;;;;;4874416;29;20434;-90
2021/10/21 12:57:51;;;;;;;0.80;0.80;;;10.30;99.90;;;;;;4876776;29;20425;-87
2021/10/21 13:00:30;;;;;;;0.40;0.40;;;11.60;99.90;;;;;;4875031;29;20469;-89
2021/10/21 13:03:21;;;;;;;1.20;1.10;;;12.60;99.90;;;;;;4891906;29;20192;-90
2021/10/21 13:05:50;;;;;;;2.17;1.30;;;10.50;99.90;;;;;;4872137;29;20853;-90
2021/10/21 13:08:16;;;;;;;1.60;0.50;;;;;;;;;;4855365;29;20443;-89
2021/10/21 13:10:56;;;;;;;1.13;0.90;;;10.30;99.90;;;;;;4874341;29;20517;-91
2021/10/21 13:13:48;;;;;;;1.17;1.07;;;9.80;99.90;;;;;;4858164;29;20461;-90
2021/10/21 13:16:16;;;;;;;1.00;0.67;;;;;;;;;;4874721;29;20426;-89
2021/10/21 13:18:46;;;;;;;0.83;0.63;;;10.30;99.90;;;;;;4873302;29;20414;-88
2021/10/21 13:21:24;;;;;;;3.83;1.00;;;12.60;99.90;;;;;;4875278;29;20462;-89
2021/10/21 13:24:12;;;;;;;1.60;0.83;;;10.30;99.90;;;;;;4874835;29;20415;-89
2021/10/21 13:26:38;;;;;;;2.30;0.97;;;;;;;;;;4857397;29;20431;-87
2021/10/21 13:29:07;;;;;;;1.43;1.20;;;;;;;;;;4876862;29;20442;-88
2021/10/21 13:31:33;;;;;;;1.33;1.20;;;;;;;;;;4870931;29;20395;-91
2021/10/21 13:34:02;;;;;;;1.90;0.90;;;10.30;99.90;;;;;;4871174;29;20454;-91
2021/10/21 13:36:28;;;;;;;2.23;1.30;;;10.40;99.90;;;;;;4875090;29;20472;-89
2021/10/21 13:39:01;;;;;;;6.60;4.00;;;10.40;99.90;;;;;;4872639;29;20459;-89
2021/10/21 13:41:37;;;;;;;2.47;1.67;;;13.30;99.90;;;;;;4864463;29;20229;-89
2021/10/21 13:44:03;;;;;;;3.77;1.33;;;10.80;99.90;;;;;;4859526;29;20453;-90
2021/10/21 13:46:29;;;;;;;2.43;1.10;;;11.00;99.90;;;;;;4864422;29;20430;-91
2021/10/21 13:49:03;;;;;;;1.10;0.87;;;10.50;99.90;;;;;;4892981;29;20410;-88
2021/10/21 13:51:29;;;;;;;0.60;0.60;;;14.70;99.90;;;;;;4863358;29;20433;-90
2021/10/21 13:53:55;;;;;;;1.20;1.10;;;12.80;99.90;;;;;;4874535;29;20439;-89
2021/10/21 13:56:21;;;;;;;0.80;0.80;;;;;;;;;;4894546;29;20170;-89
2021/10/21 13:58:49;;;;;;;1.03;0.70;;;;;;;;;;4879641;29;20461;-92
2021/10/21 14:01:40;;;;;;;1.03;1.03;;;10.20;99.90;;;;;;4893386;29;20481;-92
2021/10/21 14:04:06;;;;;;;1.10;1.10;;;;;;;;;;4891148;29;20486;-90
2021/10/21 14:06:36;;;;;;;0.50;0.50;;;10.20;99.90;;;;;;4874552;29;20434;-89
2021/10/21 14:09:04;;;;;;;1.00;1.00;;;10.40;99.90;;;;;;4890085;29;20414;-92
2021/10/21 14:11:33;;;;;;;0.53;0.53;;;9.30;99.90;;;;;;4875862;29;20430;-93
2021/10/21 14:14:07;;;;;;;2.73;1.00;;;10.50;99.90;;;;;;4870746;29;20477;-90
2021/10/21 14:16:36;;;;;;;0.87;0.87;;;10.50;99.90;;;;;;4871914;29;20520;-91
2021/10/21 14:19:03;;;;;;;0.90;0.90;;;10.60;99.90;;;;;;4871174;29;20417;-92
2021/10/21 14:21:29;;;;;;;0.80;0.80;;;;;;;;;;4872951;29;21088;-90
2021/10/21 14:23:55;;;;;;;1.10;1.10;;;;;;;;;;4885682;29;20993;-92
2021/10/21 14:26:23;;;;;;;0.70;0.70;;;;;;;;;;4886590;29;20477;-88
2021/10/21 14:28:50;;;;;;;1.47;1.23;;;;;;;;;;4893748;29;20486;-91
2021/10/21 14:31:16;;;;;;;1.60;0.97;;;;;;;;;;4551662;29;9999601;-92
2021/10/21 14:33:43;;;;;;;1.47;0.80;;;10.80;99.90;;;;;;4869495;29;20917;-93